Time;durP1;ratioP1;P1;durP2;ratioP2;P2;SDS_P1;SDS_P2;PMS_P1;PMS_P2;Temp;Humidity;BMP_temperature;BMP_pressure;BME280_temperature;BME280_humidity;BME280_pressure;Samples;Min_cycle;Max_cycle;Signal;HPM_P1;HPM_P2
2024/02/17 00:01:23;;;;;;;4.57;4.07;;;11.70;99.90;;;;;;5080994;28;20464;-48
2024/02/17 00:03:52;;;;;;;3.90;3.20;;;11.70;99.90;;;;;;5075398;28;20460;-45
2024/02/17 00:06:21;;;;;;;4.47;3.20;;;11.70;99.90;;;;;;5069506;28;20549;-46
2024/02/17 00:08:49;;;;;;;3.57;3.27;;;11.70;99.90;;;;;;5085466;28;20792;-50
2024/02/17 00:11:19;;;;;;;11.23;4.70;;;11.70;99.90;;;;;;5077713;28;20484;-46
2024/02/17 00:13:47;;;;;;;4.03;3.63;;;11.70;99.90;;;;;;5064913;28;20830;-44
2024/02/17 00:16:16;;;;;;;4.33;3.90;;;11.70;99.90;;;;;;5068538;28;21266;-52
2024/02/17 00:18:44;;;;;;;4.90;3.67;;;11.70;99.90;;;;;;5070539;28;20524;-49
2024/02/17 00:21:15;;;;;;;3.90;3.50;;;11.60;99.90;;;;;;5085145;28;20548;-46
2024/02/17 00:23:43;;;;;;;5.10;3.73;;;11.60;99.90;;;;;;5078863;28;20859;-45
2024/02/17 00:26:16;;;;;;;4.20;3.10;;;11.60;99.90;;;;;;5048096;28;20998;-46
2024/02/17 00:28:45;;;;;;;6.37;3.53;;;11.60;99.90;;;;;;5082115;28;20425;-48
2024/02/17 00:31:14;;;;;;;4.47;3.27;;;11.60;99.90;;;;;;5083629;28;20848;-46
2024/02/17 00:33:42;;;;;;;5.63;3.23;;;11.60;99.90;;;;;;5081485;28;21059;-46
2024/02/17 00:36:10;;;;;;;4.00;3.10;;;11.60;99.90;;;;;;5068861;28;20507;-47
2024/02/17 00:38:39;;;;;;;7.20;4.43;;;11.60;99.90;;;;;;5085584;28;20518;-45
2024/02/17 00:41:07;;;;;;;4.30;3.50;;;11.60;99.90;;;;;;5082262;28;20461;-49
2024/02/17 00:43:35;;;;;;;4.30;3.63;;;11.60;99.90;;;;;;5083826;28;20864;-46
2024/02/17 00:46:07;;;;;;;5.60;4.30;;;11.60;99.90;;;;;;5077381;28;20466;-44
2024/02/17 00:48:35;;;;;;;5.03;4.03;;;11.60;99.90;;;;;;5081873;28;20440;-46
2024/02/17 00:51:03;;;;;;;4.77;3.67;;;11.60;99.90;;;;;;5077045;28;20466;-45
2024/02/17 00:53:42;;;;;;;6.60;3.40;;;11.60;99.90;;;;;;5080468;28;20470;-45
2024/02/17 00:56:11;;;;;;;3.90;2.77;;;11.60;99.90;;;;;;5079888;28;20910;-48
2024/02/17 00:58:42;;;;;;;4.17;3.80;;;11.60;99.90;;;;;;5083624;28;20425;-44
2024/02/17 01:01:11;;;;;;;3.20;2.53;;;11.60;99.90;;;;;;5082632;28;20991;-45
2024/02/17 01:03:53;;;;;;;4.10;2.90;;;11.60;99.90;;;;;;5078006;28;20471;-45
2024/02/17 01:06:23;;;;;;;3.70;3.17;;;11.60;99.90;;;;;;5075474;28;20488;-46
2024/02/17 01:08:51;;;;;;;3.80;3.30;;;11.60;99.90;;;;;;5084562;28;20915;-47
2024/02/17 01:11:21;;;;;;;3.50;3.20;;;11.60;99.90;;;;;;5081085;28;20497;-47
2024/02/17 01:13:50;;;;;;;3.73;3.23;;;11.60;99.90;;;;;;5075641;28;20452;-50
2024/02/17 01:16:20;;;;;;;4.73;3.50;;;11.60;99.90;;;;;;5073155;28;20519;-47
2024/02/17 01:18:49;;;;;;;5.60;5.00;;;11.60;99.90;;;;;;5052250;28;20454;-47
2024/02/17 01:21:18;;;;;;;4.90;3.80;;;11.60;99.90;;;;;;5082313;28;20509;-46
2024/02/17 01:23:46;;;;;;;3.70;2.90;;;11.60;99.90;;;;;;5077193;28;20462;-44
2024/02/17 01:26:15;;;;;;;3.27;2.97;;;11.60;99.90;;;;;;5080334;28;20472;-50
2024/02/17 01:28:44;;;;;;;5.23;3.37;;;11.60;99.90;;;;;;5082183;28;20981;-45
2024/02/17 01:31:12;;;;;;;5.17;3.60;;;11.60;99.90;;;;;;5049795;28;20497;-44
2024/02/17 01:33:43;;;;;;;4.60;2.93;;;11.60;99.90;;;;;;5081068;28;20537;-45
2024/02/17 01:36:16;;;;;;;3.57;2.83;;;11.60;99.90;;;;;;5072050;28;20985;-45
2024/02/17 01:38:46;;;;;;;4.70;3.30;;;11.60;99.90;;;;;;5066790;28;20821;-46
2024/02/17 01:41:15;;;;;;;3.93;3.23;;;11.60;99.90;;;;;;5080020;28;20576;-47
2024/02/17 01:43:44;;;;;;;4.03;3.30;;;11.60;99.90;;;;;;5078667;28;20463;-47
2024/02/17 01:46:12;;;;;;;3.80;3.47;;;11.60;99.90;;;;;;5076255;28;20462;-45
2024/02/17 01:48:43;;;;;;;5.33;4.27;;;11.60;99.90;;;;;;5076863;28;20478;-45
2024/02/17 01:51:12;;;;;;;3.70;3.23;;;11.60;99.90;;;;;;5080989;28;20559;-47
2024/02/17 01:53:42;;;;;;;3.40;3.07;;;11.60;99.90;;;;;;5074429;28;20472;-46
2024/02/17 01:56:11;;;;;;;3.43;3.10;;;11.60;99.90;;;;;;5078822;28;20488;-46
2024/02/17 01:58:40;;;;;;;3.43;3.13;;;11.60;99.90;;;;;;5073439;28;20441;-46
2024/02/17 02:01:09;;;;;;;3.67;2.83;;;11.50;99.90;;;;;;5079233;28;20453;-46
2024/02/17 02:03:39;;;;;;;3.70;3.10;;;11.60;99.90;;;;;;5080785;28;21038;-44
2024/02/17 02:06:08;;;;;;;3.50;2.80;;;11.60;99.90;;;;;;5072783;28;20491;-47
2024/02/17 02:08:37;;;;;;;5.50;3.60;;;11.50;99.90;;;;;;5082345;28;20459;-47
2024/02/17 02:11:06;;;;;;;3.17;2.63;;;11.60;99.90;;;;;;5076471;28;20555;-46
2024/02/17 02:13:36;;;;;;;3.13;2.83;;;11.50;99.90;;;;;;5075863;28;20473;-47
2024/02/17 02:16:05;;;;;;;3.53;3.07;;;11.60;99.90;;;;;;5078233;28;20485;-45
2024/02/17 02:18:34;;;;;;;4.07;3.27;;;11.50;99.90;;;;;;5077935;28;20563;-45
2024/02/17 02:21:03;;;;;;;4.60;3.00;;;11.60;99.90;;;;;;5075690;28;20465;-47
2024/02/17 02:23:34;;;;;;;5.43;3.20;;;11.50;99.90;;;;;;5081816;28;20489;-46
2024/02/17 02:26:04;;;;;;;3.27;2.50;;;11.50;99.90;;;;;;5079215;28;20547;-46
2024/02/17 02:28:34;;;;;;;4.07;3.10;;;11.50;99.90;;;;;;5076703;28;20445;-46
2024/02/17 02:31:02;;;;;;;4.63;2.97;;;11.50;99.90;;;;;;5079963;28;20457;-45
2024/02/17 02:33:31;;;;;;;3.27;2.63;;;11.50;99.90;;;;;;5078183;28;20505;-46
2024/02/17 02:36:00;;;;;;;3.70;3.23;;;11.50;99.90;;;;;;5078214;28;20498;-45
2024/02/17 02:38:29;;;;;;;4.07;3.20;;;11.50;99.90;;;;;;5083655;28;20463;-46
2024/02/17 02:40:57;;;;;;;3.70;3.17;;;11.50;99.90;;;;;;5080997;28;20513;-45
2024/02/17 02:43:27;;;;;;;4.30;3.90;;;11.50;99.90;;;;;;5083701;28;20449;-46
2024/02/17 02:45:56;;;;;;;3.87;3.20;;;11.50;99.90;;;;;;5074477;28;20476;-48
2024/02/17 02:48:24;;;;;;;6.40;3.20;;;11.50;99.90;;;;;;5085264;28;20441;-45
2024/02/17 02:50:52;;;;;;;3.70;2.83;;;11.50;99.90;;;;;;5084130;28;20464;-47
2024/02/17 02:53:21;;;;;;;3.10;2.80;;;11.50;99.90;;;;;;5082794;28;20469;-47
2024/02/17 02:55:49;;;;;;;6.83;4.30;;;11.50;99.90;;;;;;5076614;28;20516;-46
2024/02/17 02:58:18;;;;;;;3.70;2.70;;;11.50;99.90;;;;;;5079477;28;20428;-45
2024/02/17 03:00:48;;;;;;;3.80;2.90;;;11.50;99.90;;;;;;5061240;28;21175;-46
2024/02/17 03:03:16;;;;;;;3.43;2.83;;;11.50;99.90;;;;;;5089082;28;20551;-45
2024/02/17 03:05:45;;;;;;;3.60;3.00;;;11.50;99.90;;;;;;5086134;28;20465;-46
2024/02/17 03:08:15;;;;;;;4.23;2.80;;;11.50;99.90;;;;;;5090522;28;20463;-50
2024/02/17 03:10:43;;;;;;;5.07;3.13;;;11.50;99.90;;;;;;5090632;28;20472;-47
2024/02/17 03:13:11;;;;;;;3.73;3.33;;;11.50;99.90;;;;;;5091886;28;20974;-47
2024/02/17 03:15:40;;;;;;;2.90;2.60;;;11.50;99.90;;;;;;5081113;28;20448;-44
2024/02/17 03:18:10;;;;;;;4.87;3.87;;;11.50;99.90;;;;;;5090583;28;20459;-46
2024/02/17 03:20:41;;;;;;;4.80;3.53;;;11.50;99.90;;;;;;5092260;28;20540;-45
2024/02/17 03:23:09;;;;;;;2.67;2.47;;;11.50;99.90;;;;;;5063114;28;20769;-45
2024/02/17 03:25:38;;;;;;;5.50;3.50;;;11.50;99.90;;;;;;5089285;28;20457;-49
2024/02/17 03:28:07;;;;;;;4.40;3.07;;;11.50;99.90;;;;;;5089536;28;20441;-46
2024/02/17 03:30:36;;;;;;;6.37;3.50;;;11.50;99.90;;;;;;5067796;28;20457;-46
2024/02/17 03:33:05;;;;;;;5.67;3.60;;;11.50;99.90;;;;;;5085505;28;20851;-46
2024/02/17 03:35:37;;;;;;;6.07;3.13;;;11.50;99.90;;;;;;5090641;28;20536;-45
2024/02/17 03:38:05;;;;;;;3.60;3.30;;;11.50;99.90;;;;;;5090170;28;20421;-46
2024/02/17 03:40:36;;;;;;;5.40;3.20;;;11.50;99.90;;;;;;5085651;28;20452;-47
2024/02/17 03:43:05;;;;;;;5.43;3.10;;;11.50;99.90;;;;;;5090045;28;20445;-45
2024/02/17 03:45:33;;;;;;;3.07;2.73;;;11.50;99.90;;;;;;5089507;28;20452;-45
2024/02/17 03:48:02;;;;;;;3.67;2.93;;;11.50;99.90;;;;;;5082416;28;20442;-45
2024/02/17 03:50:31;;;;;;;3.80;3.33;;;11.40;99.90;;;;;;5087363;28;20958;-45
2024/02/17 03:53:01;;;;;;;4.70;3.50;;;11.50;99.90;;;;;;5082426;28;20440;-46
2024/02/17 03:55:29;;;;;;;3.83;3.47;;;11.50;99.90;;;;;;5088000;28;20437;-45
2024/02/17 03:57:57;;;;;;;6.30;3.00;;;11.50;99.90;;;;;;5091389;28;20845;-45
2024/02/17 04:00:25;;;;;;;6.87;4.03;;;11.50;99.90;;;;;;5090858;28;20927;-45
2024/02/17 04:02:54;;;;;;;3.57;3.20;;;11.50;99.90;;;;;;5067445;28;20442;-46
2024/02/17 04:05:22;;;;;;;3.93;3.23;;;11.50;99.90;;;;;;5084755;28;20444;-46
2024/02/17 04:07:51;;;;;;;4.13;3.30;;;11.50;99.90;;;;;;5084343;28;20496;-49
2024/02/17 04:10:21;;;;;;;3.50;3.20;;;11.50;99.90;;;;;;5079433;28;20476;-47
2024/02/17 04:12:49;;;;;;;5.10;3.37;;;11.40;99.90;;;;;;5080313;28;20428;-48
2024/02/17 04:15:19;;;;;;;4.60;3.70;;;11.40;99.90;;;;;;5084045;28;20469;-45
2024/02/17 04:17:47;;;;;;;3.43;3.13;;;11.50;99.90;;;;;;5079778;28;20467;-48
2024/02/17 04:20:16;;;;;;;3.90;3.30;;;11.50;99.90;;;;;;5076029;28;20510;-44
2024/02/17 04:22:44;;;;;;;4.73;3.40;;;11.50;99.90;;;;;;5082444;28;20424;-47
2024/02/17 04:25:12;;;;;;;6.20;4.00;;;11.50;99.90;;;;;;5084513;28;20441;-45
2024/02/17 04:27:42;;;;;;;3.40;2.70;;;11.40;99.90;;;;;;5079271;28;20444;-45
2024/02/17 04:30:10;;;;;;;4.60;4.17;;;11.40;99.90;;;;;;5073826;28;20424;-47
2024/02/17 04:32:39;;;;;;;4.87;3.37;;;11.40;99.90;;;;;;5080753;28;20511;-46
2024/02/17 04:35:08;;;;;;;4.73;3.30;;;11.40;99.90;;;;;;5081530;28;20982;-45
2024/02/17 04:37:40;;;;;;;4.03;3.10;;;11.40;99.90;;;;;;5077336;28;20540;-45
2024/02/17 04:40:09;;;;;;;3.80;3.50;;;11.40;99.90;;;;;;5082018;28;20432;-46
2024/02/17 04:42:42;;;;;;;3.63;3.23;;;11.40;99.90;;;;;;5081166;28;20558;-46
2024/02/17 04:45:11;;;;;;;4.17;3.43;;;11.40;99.90;;;;;;5078288;28;20462;-46
2024/02/17 04:47:39;;;;;;;3.53;3.20;;;11.40;99.90;;;;;;5074434;28;20454;-45
2024/02/17 04:50:11;;;;;;;4.63;4.23;;;11.40;99.90;;;;;;5064876;28;20495;-45
2024/02/17 04:52:41;;;;;;;6.80;3.77;;;11.40;99.90;;;;;;5078479;28;20450;-46
2024/02/17 04:55:10;;;;;;;4.50;4.00;;;11.40;99.90;;;;;;5074672;28;20461;-46
2024/02/17 04:57:38;;;;;;;4.20;3.63;;;11.40;99.90;;;;;;5080822;28;20466;-46
2024/02/17 05:00:09;;;;;;;4.47;3.30;;;11.40;99.90;;;;;;5083890;28;20424;-47
2024/02/17 05:02:39;;;;;;;5.33;3.30;;;11.40;99.90;;;;;;5081524;28;20584;-46
2024/02/17 05:05:15;;;;;;;3.40;2.97;;;11.40;99.90;;;;;;5082376;28;20862;-48
2024/02/17 05:07:44;;;;;;;4.63;3.40;;;11.40;99.90;;;;;;5077671;28;20845;-45
2024/02/17 05:10:12;;;;;;;4.83;3.10;;;11.40;99.90;;;;;;5084809;28;20456;-45
2024/02/17 05:12:41;;;;;;;4.60;3.87;;;11.40;99.90;;;;;;5083337;28;20453;-47
2024/02/17 05:15:13;;;;;;;4.93;3.13;;;11.40;99.90;;;;;;5083178;28;20468;-46
2024/02/17 05:17:42;;;;;;;4.77;3.20;;;11.40;99.90;;;;;;5070837;28;20836;-46
2024/02/17 05:20:12;;;;;;;3.90;3.03;;;11.40;99.90;;;;;;5083697;28;20497;-45
2024/02/17 05:22:43;;;;;;;3.80;3.50;;;11.40;99.90;;;;;;5083182;28;20453;-45
2024/02/17 05:25:12;;;;;;;4.60;3.63;;;11.40;99.90;;;;;;5082473;28;20506;-46
2024/02/17 05:27:40;;;;;;;4.10;3.10;;;11.40;99.90;;;;;;5074253;28;20518;-46
2024/02/17 05:30:14;;;;;;;5.03;3.43;;;11.40;99.90;;;;;;5082984;28;20520;-45
2024/02/17 05:32:42;;;;;;;4.20;3.60;;;11.40;99.90;;;;;;5075305;28;20824;-45
2024/02/17 05:35:10;;;;;;;5.27;4.30;;;11.40;99.90;;;;;;5076554;28;20485;-45
2024/02/17 05:37:39;;;;;;;6.60;4.80;;;11.30;99.90;;;;;;5084200;28;20454;-46
2024/02/17 05:40:11;;;;;;;6.43;3.90;;;11.40;99.90;;;;;;5083965;28;20431;-46
2024/02/17 05:42:39;;;;;;;6.80;3.73;;;11.40;99.90;;;;;;5082783;28;20475;-47
2024/02/17 05:45:12;;;;;;;4.60;3.47;;;11.40;99.90;;;;;;5079514;28;20467;-47
2024/02/17 05:47:41;;;;;;;4.90;4.23;;;11.40;99.90;;;;;;5076310;28;20545;-49
2024/02/17 05:50:11;;;;;;;5.87;4.60;;;11.30;99.90;;;;;;5066170;28;20437;-46
2024/02/17 05:52:41;;;;;;;7.10;4.43;;;11.30;99.90;;;;;;5080740;28;20441;-46
2024/02/17 05:55:09;;;;;;;4.03;3.63;;;11.40;99.90;;;;;;5079976;28;20463;-46
2024/02/17 05:57:37;;;;;;;4.70;3.80;;;11.30;99.90;;;;;;5077291;28;20514;-47
2024/02/17 06:00:08;;;;;;;3.77;3.40;;;11.40;99.90;;;;;;5082499;28;20445;-45
2024/02/17 06:02:37;;;;;;;7.53;4.60;;;11.30;99.90;;;;;;5080735;28;20467;-46
2024/02/17 06:05:07;;;;;;;3.90;3.50;;;11.30;99.90;;;;;;5080575;28;20550;-47
2024/02/17 06:07:35;;;;;;;5.00;3.97;;;11.30;99.90;;;;;;5075524;28;21004;-46
2024/02/17 06:10:05;;;;;;;4.80;4.30;;;11.30;99.90;;;;;;5069659;28;20515;-45
2024/02/17 06:12:33;;;;;;;4.30;3.90;;;11.30;99.90;;;;;;5085601;28;20465;-46
2024/02/17 06:15:01;;;;;;;4.27;3.87;;;11.30;99.90;;;;;;5085183;28;20855;-45
2024/02/17 06:17:30;;;;;;;4.80;3.67;;;11.30;99.90;;;;;;5081422;28;20473;-47
2024/02/17 06:22:45;;;;;;;5.03;4.50;;;11.30;99.90;;;;;;5088803;28;20533;-47
2024/02/17 06:25:14;;;;;;;7.53;5.20;;;11.30;99.90;;;;;;5079737;28;20466;-47
2024/02/17 06:27:42;;;;;;;7.10;4.20;;;11.30;99.90;;;;;;5082914;28;20986;-46
2024/02/17 06:30:14;;;;;;;5.93;4.70;;;11.30;99.90;;;;;;5085953;28;20970;-47
2024/02/17 06:32:43;;;;;;;5.40;4.80;;;11.30;99.90;;;;;;5077681;28;20461;-45
2024/02/17 06:35:12;;;;;;;4.20;3.80;;;11.30;99.90;;;;;;5086153;28;20474;-45
2024/02/17 06:37:41;;;;;;;5.70;4.03;;;11.30;99.90;;;;;;5061871;28;20485;-45
2024/02/17 06:40:10;;;;;;;4.20;3.80;;;11.30;99.90;;;;;;5086749;28;20931;-45
2024/02/17 06:42:39;;;;;;;5.07;3.50;;;11.30;99.90;;;;;;5085458;28;20492;-45
2024/02/17 06:45:10;;;;;;;3.63;3.23;;;11.30;99.90;;;;;;5079148;28;20521;-47
2024/02/17 06:47:38;;;;;;;3.60;3.20;;;11.30;99.90;;;;;;5057128;28;20851;-47
2024/02/17 06:50:07;;;;;;;4.50;4.10;;;11.30;99.90;;;;;;5082150;28;21009;-47
2024/02/17 06:52:37;;;;;;;4.03;3.63;;;11.30;99.90;;;;;;5086020;28;20463;-45
2024/02/17 06:55:06;;;;;;;4.23;3.67;;;11.30;99.90;;;;;;5086466;28;20459;-50
2024/02/17 06:57:37;;;;;;;5.40;3.40;;;11.30;99.90;;;;;;5074305;28;21015;-46
2024/02/17 07:00:07;;;;;;;6.07;3.50;;;11.30;99.90;;;;;;5079414;28;20472;-45
2024/02/17 07:05:29;;;;;;;4.20;3.80;;;11.30;99.90;;;;;;5345432;22;20445;-47
2024/02/17 07:07:59;;;;;;;4.43;4.00;;;11.30;99.90;;;;;;5004075;28;20451;-44
2024/02/17 07:10:27;;;;;;;4.97;3.77;;;11.30;99.90;;;;;;5003821;28;20424;-45
2024/02/17 07:12:57;;;;;;;4.23;3.37;;;11.30;99.90;;;;;;4995899;28;20444;-44
2024/02/17 07:15:26;;;;;;;4.83;4.07;;;11.30;99.90;;;;;;5004539;28;21001;-44
2024/02/17 07:17:55;;;;;;;5.87;4.53;;;11.30;99.90;;;;;;5003125;28;20450;-45
2024/02/17 07:20:24;;;;;;;4.50;3.50;;;11.30;99.90;;;;;;5002037;28;20941;-45
2024/02/17 07:22:52;;;;;;;3.03;2.70;;;11.30;99.90;;;;;;5009847;28;20434;-44
2024/02/17 07:25:22;;;;;;;6.10;5.43;;;11.30;99.90;;;;;;5002723;28;20449;-45
2024/02/17 07:27:50;;;;;;;4.60;3.90;;;11.30;99.90;;;;;;5003863;28;20444;-45
2024/02/17 07:30:18;;;;;;;4.20;3.80;;;11.20;99.90;;;;;;5006424;28;20522;-44
2024/02/17 07:32:46;;;;;;;7.40;4.97;;;11.30;99.90;;;;;;4998758;28;20450;-45
2024/02/17 07:35:15;;;;;;;3.83;3.40;;;11.30;99.90;;;;;;5005459;28;20464;-46
2024/02/17 07:37:44;;;;;;;4.37;3.63;;;11.30;99.90;;;;;;5003605;28;20450;-44
2024/02/17 07:40:13;;;;;;;4.27;3.50;;;11.30;99.90;;;;;;5005113;28;20906;-45
2024/02/17 07:42:43;;;;;;;5.63;4.53;;;11.30;99.90;;;;;;5002780;28;20473;-46
2024/02/17 07:45:11;;;;;;;4.70;4.20;;;11.30;99.90;;;;;;5009591;28;21089;-45
2024/02/17 07:47:39;;;;;;;5.23;3.77;;;11.30;99.90;;;;;;5000822;28;20476;-46
2024/02/17 07:50:10;;;;;;;4.40;3.90;;;11.30;99.90;;;;;;5003931;28;20626;-47
2024/02/17 07:52:39;;;;;;;6.10;4.77;;;11.20;99.90;;;;;;4985606;28;21010;-46
2024/02/17 07:55:08;;;;;;;5.07;4.40;;;11.30;99.90;;;;;;5005760;28;20553;-46
2024/02/17 07:57:36;;;;;;;5.10;3.63;;;11.20;99.90;;;;;;5000194;28;20874;-47
2024/02/17 08:00:08;;;;;;;8.77;5.10;;;11.20;99.90;;;;;;5005205;28;20446;-47
2024/02/17 08:02:41;;;;;;;5.83;4.23;;;11.20;99.90;;;;;;4994076;28;20477;-47
2024/02/17 08:05:10;;;;;;;5.80;5.20;;;11.20;99.90;;;;;;5005094;28;20455;-46
2024/02/17 08:07:38;;;;;;;5.37;4.63;;;11.20;99.90;;;;;;5002395;28;20468;-46
2024/02/17 08:10:08;;;;;;;6.73;3.53;;;11.20;99.90;;;;;;5006537;28;20437;-46
2024/02/17 08:12:37;;;;;;;5.23;4.07;;;11.20;99.90;;;;;;4997107;28;21272;-45
2024/02/17 08:15:07;;;;;;;5.47;4.57;;;11.20;99.90;;;;;;5004090;28;20910;-46
2024/02/17 08:17:36;;;;;;;5.40;4.20;;;11.20;99.90;;;;;;5001070;28;20501;-46
2024/02/17 08:20:05;;;;;;;5.43;4.13;;;11.20;99.90;;;;;;5007417;28;20437;-46
2024/02/17 08:22:33;;;;;;;4.90;3.70;;;11.20;99.90;;;;;;5001685;28;20464;-47
2024/02/17 08:25:03;;;;;;;5.40;3.60;;;11.20;99.90;;;;;;5002185;28;20857;-46
2024/02/17 08:27:34;;;;;;;4.70;3.87;;;11.20;99.90;;;;;;5002880;28;20448;-47
2024/02/17 08:30:03;;;;;;;4.00;3.53;;;11.20;99.90;;;;;;5005489;28;20429;-47
2024/02/17 08:32:33;;;;;;;5.50;4.07;;;11.20;99.90;;;;;;4993556;28;20569;-46
2024/02/17 08:35:02;;;;;;;6.07;4.40;;;11.20;99.90;;;;;;5003977;28;20825;-46
2024/02/17 08:37:30;;;;;;;4.20;3.60;;;11.20;99.90;;;;;;5002205;28;20872;-46
2024/02/17 08:39:58;;;;;;;4.27;3.60;;;11.20;99.90;;;;;;5005149;28;20460;-46
2024/02/17 08:42:26;;;;;;;5.47;4.07;;;11.20;99.90;;;;;;5000438;28;20562;-45
2024/02/17 08:44:55;;;;;;;4.93;4.20;;;11.20;99.90;;;;;;5002731;28;20464;-45
2024/02/17 08:47:24;;;;;;;5.80;4.37;;;11.20;99.90;;;;;;5000210;28;20488;-45
2024/02/17 08:49:54;;;;;;;5.47;4.60;;;11.20;99.90;;;;;;5008951;28;20422;-46
2024/02/17 08:52:22;;;;;;;4.70;3.83;;;11.20;99.90;;;;;;5001486;28;20560;-46
2024/02/17 08:54:50;;;;;;;4.27;3.87;;;11.20;99.90;;;;;;5003675;28;20495;-46
2024/02/17 08:57:18;;;;;;;4.03;3.67;;;11.20;99.90;;;;;;4999622;28;20477;-45
2024/02/17 08:59:47;;;;;;;4.67;4.17;;;11.20;99.90;;;;;;5005663;28;20499;-46
2024/02/17 09:02:17;;;;;;;8.43;4.63;;;11.20;99.90;;;;;;5000935;28;20484;-46
2024/02/17 09:04:46;;;;;;;6.23;4.10;;;11.20;99.90;;;;;;5002479;28;20846;-45
2024/02/17 09:07:16;;;;;;;4.20;3.80;;;11.20;99.90;;;;;;5006143;28;20460;-45
2024/02/17 09:09:44;;;;;;;5.10;3.73;;;11.20;99.90;;;;;;5003887;28;20491;-46
2024/02/17 09:12:13;;;;;;;6.10;5.07;;;11.20;99.90;;;;;;4997883;28;20990;-45
2024/02/17 09:14:41;;;;;;;12.13;5.90;;;11.20;99.90;;;;;;4984030;28;20473;-45
2024/02/17 09:17:09;;;;;;;6.23;5.20;;;11.20;99.90;;;;;;4998015;28;20502;-46
2024/02/17 09:19:38;;;;;;;17.47;11.43;;;11.20;99.90;;;;;;4998549;28;20441;-45
2024/02/17 09:22:06;;;;;;;16.13;11.17;;;11.30;99.90;;;;;;4998986;28;20564;-46
2024/02/17 09:24:36;;;;;;;15.47;10.40;;;11.20;99.90;;;;;;5002581;28;20802;-46
2024/02/17 09:27:06;;;;;;;15.40;10.60;;;11.20;99.90;;;;;;4999536;28;20476;-46
2024/02/17 09:29:34;;;;;;;11.60;9.47;;;11.20;99.90;;;;;;5001588;28;20426;-46
2024/02/17 09:32:02;;;;;;;15.50;9.80;;;11.10;99.90;;;;;;4999567;28;20936;-45
2024/02/17 09:34:31;;;;;;;14.27;9.90;;;11.20;99.90;;;;;;4984470;28;20506;-45
2024/02/17 09:37:00;;;;;;;9.77;8.80;;;11.20;99.90;;;;;;5001710;28;20519;-47
2024/02/17 09:39:29;;;;;;;12.43;8.83;;;11.20;99.90;;;;;;5001256;28;20506;-44
2024/02/17 09:41:58;;;;;;;15.20;7.73;;;11.20;99.90;;;;;;4981720;28;20569;-44
2024/02/17 09:44:27;;;;;;;15.50;8.20;;;11.20;99.90;;;;;;4988088;28;20510;-46
2024/02/17 09:46:58;;;;;;;10.33;7.60;;;11.20;99.90;;;;;;5001762;28;20533;-45
2024/02/17 09:49:27;;;;;;;12.50;7.73;;;11.20;99.90;;;;;;5002244;28;20448;-47
2024/02/17 09:51:56;;;;;;;8.97;7.37;;;11.20;99.90;;;;;;5004792;28;21206;-47
2024/02/17 09:54:26;;;;;;;11.03;7.83;;;11.20;99.90;;;;;;5000765;28;20551;-46
2024/02/17 09:57:00;;;;;;;10.77;6.77;;;11.20;99.90;;;;;;5002593;28;20477;-51
2024/02/17 09:59:32;;;;;;;12.53;7.23;;;11.20;99.90;;;;;;5002272;28;20452;-48
2024/02/17 10:02:02;;;;;;;8.83;6.10;;;11.20;99.90;;;;;;5004185;28;20480;-49
2024/02/17 10:04:32;;;;;;;8.00;6.37;;;11.20;99.90;;;;;;5003032;28;21071;-47
2024/02/17 10:07:03;;;;;;;8.47;6.60;;;11.20;99.90;;;;;;5005197;28;20467;-47
2024/02/17 10:09:35;;;;;;;9.50;6.33;;;11.20;99.90;;;;;;4990126;28;20443;-46
2024/02/17 10:12:08;;;;;;;6.60;5.97;;;11.20;99.90;;;;;;5004655;28;20510;-47
2024/02/17 10:14:36;;;;;;;9.73;6.00;;;11.20;99.90;;;;;;5006226;28;20457;-47
2024/02/17 10:17:08;;;;;;;9.20;6.20;;;11.20;99.90;;;;;;4999967;28;20509;-47
2024/02/17 10:19:36;;;;;;;6.93;6.20;;;11.20;99.90;;;;;;4998988;28;20677;-47
2024/02/17 10:22:05;;;;;;;6.83;6.13;;;11.30;99.90;;;;;;4999760;28;20487;-47
2024/02/17 10:24:36;;;;;;;9.70;6.67;;;11.30;99.90;;;;;;5002353;28;20911;-47
2024/02/17 10:27:06;;;;;;;8.13;5.93;;;11.30;99.90;;;;;;4985766;28;20511;-46
2024/02/17 10:29:35;;;;;;;7.20;6.40;;;11.30;99.90;;;;;;5003592;28;20420;-46
2024/02/17 10:32:03;;;;;;;10.90;7.30;;;11.20;99.90;;;;;;5000990;28;20468;-47
2024/02/17 10:34:32;;;;;;;10.47;6.20;;;11.30;99.90;;;;;;4968204;28;20529;-47
2024/02/17 10:37:01;;;;;;;8.50;5.77;;;11.30;99.90;;;;;;4999862;28;20545;-49
2024/02/17 10:39:31;;;;;;;8.33;6.40;;;11.30;99.90;;;;;;5002372;28;20439;-48
2024/02/17 10:41:59;;;;;;;6.50;5.10;;;11.30;99.90;;;;;;4984284;28;20983;-47
2024/02/17 10:44:30;;;;;;;6.83;6.13;;;11.20;99.90;;;;;;4985860;28;20459;-45
2024/02/17 10:46:59;;;;;;;8.17;5.40;;;11.30;99.90;;;;;;4997600;28;20481;-49
2024/02/17 10:49:28;;;;;;;7.27;5.73;;;11.30;99.90;;;;;;5003145;28;20999;-43
2024/02/17 10:51:59;;;;;;;8.10;5.73;;;11.30;99.90;;;;;;4999307;28;20479;-48
2024/02/17 10:54:39;;;;;;;7.57;5.20;;;11.40;99.90;;;;;;5003236;28;20449;-48
2024/02/17 10:57:13;;;;;;;7.43;5.33;;;11.30;99.90;;;;;;4985379;28;20579;-48
2024/02/17 10:59:44;;;;;;;6.60;5.10;;;11.30;99.90;;;;;;5007399;28;20436;-47
2024/02/17 11:02:16;;;;;;;6.17;5.23;;;11.30;99.90;;;;;;4997162;28;20510;-47
2024/02/17 11:04:45;;;;;;;8.93;5.40;;;11.30;99.90;;;;;;5003928;28;20441;-49
2024/02/17 11:07:16;;;;;;;6.87;5.27;;;11.30;99.90;;;;;;5004340;28;20465;-46
2024/02/17 11:09:45;;;;;;;8.60;5.73;;;11.30;99.90;;;;;;4990290;28;20428;-46
2024/02/17 11:12:36;;;;;;;7.60;5.50;;;11.30;99.90;;;;;;5002140;28;20468;-50
2024/02/17 11:15:08;;;;;;;7.53;5.00;;;11.30;99.90;;;;;;5002407;28;20467;-48
2024/02/17 11:17:40;;;;;;;9.57;5.03;;;11.30;99.90;;;;;;4998982;28;20477;-46
2024/02/17 11:20:12;;;;;;;7.70;4.90;;;11.30;99.90;;;;;;5004398;28;20440;-45
2024/02/17 11:22:42;;;;;;;5.57;4.90;;;11.30;99.90;;;;;;4998996;28;20480;-46
2024/02/17 11:25:11;;;;;;;5.97;5.37;;;11.30;99.90;;;;;;4984331;28;20452;-45
2024/02/17 11:27:42;;;;;;;5.20;4.70;;;11.30;99.90;;;;;;5000539;28;20523;-46
2024/02/17 11:30:13;;;;;;;6.17;5.57;;;11.30;99.90;;;;;;5003570;28;20424;-45
2024/02/17 11:32:42;;;;;;;6.20;5.20;;;11.30;99.90;;;;;;4998241;28;20886;-47
2024/02/17 11:35:12;;;;;;;8.20;4.60;;;11.30;99.90;;;;;;4985562;28;20445;-45
2024/02/17 11:37:42;;;;;;;6.70;6.03;;;11.30;99.90;;;;;;5001107;28;20904;-48
2024/02/17 11:40:12;;;;;;;7.23;5.33;;;11.30;99.90;;;;;;5003799;28;20425;-51
2024/02/17 11:42:43;;;;;;;6.93;4.97;;;11.30;99.90;;;;;;5002538;28;20464;-46
2024/02/17 11:45:14;;;;;;;6.57;4.50;;;11.30;99.90;;;;;;5002538;28;20468;-49
2024/02/17 11:47:42;;;;;;;7.03;5.07;;;11.30;99.90;;;;;;4998823;28;20528;-45
2024/02/17 11:50:11;;;;;;;6.33;4.10;;;11.30;99.90;;;;;;4986606;28;20431;-48
2024/02/17 11:52:42;;;;;;;4.47;4.07;;;11.30;99.90;;;;;;5001566;28;20460;-45
2024/02/17 11:55:11;;;;;;;6.57;4.80;;;11.30;99.90;;;;;;5002120;28;20798;-46
2024/02/17 11:57:40;;;;;;;5.53;4.40;;;11.30;99.90;;;;;;5002593;28;20481;-46
2024/02/17 12:00:10;;;;;;;5.27;4.77;;;11.30;99.90;;;;;;5007807;28;20468;-46
2024/02/17 12:02:43;;;;;;;5.47;4.97;;;11.30;99.90;;;;;;5003023;28;20485;-50
2024/02/17 12:05:13;;;;;;;5.83;4.50;;;11.30;99.90;;;;;;5001438;28;21001;-47
2024/02/17 12:07:42;;;;;;;6.40;4.60;;;11.20;99.90;;;;;;5001794;28;20464;-48
2024/02/17 12:10:11;;;;;;;4.40;4.00;;;11.20;99.90;;;;;;5003862;28;20458;-48
2024/02/17 12:12:40;;;;;;;4.70;3.90;;;11.20;99.90;;;;;;4998499;28;20486;-50
2024/02/17 12:15:13;;;;;;;5.13;4.23;;;11.20;99.90;;;;;;4986365;28;20465;-46
2024/02/17 12:17:45;;;;;;;5.30;4.40;;;11.20;99.90;;;;;;4996594;28;20479;-49
2024/02/17 12:20:15;;;;;;;4.60;4.20;;;11.20;99.90;;;;;;5004007;28;20453;-48
2024/02/17 12:22:46;;;;;;;6.30;5.00;;;11.20;99.90;;;;;;5001494;28;20504;-47
2024/02/17 12:25:16;;;;;;;5.13;4.00;;;11.20;99.90;;;;;;5002878;28;20447;-46
2024/02/17 12:27:45;;;;;;;4.63;4.23;;;11.20;99.90;;;;;;4999267;28;21014;-49
2024/02/17 12:30:17;;;;;;;4.13;3.73;;;11.20;99.90;;;;;;5004231;28;20437;-49
2024/02/17 12:32:48;;;;;;;5.73;4.27;;;11.20;99.90;;;;;;4981552;28;21036;-47
2024/02/17 12:35:18;;;;;;;4.20;3.80;;;11.20;99.90;;;;;;4984455;28;20937;-51
2024/02/17 12:37:56;;;;;;;5.60;4.10;;;11.20;99.90;;;;;;5000102;28;20858;-51
2024/02/17 12:40:29;;;;;;;6.87;4.17;;;11.20;99.90;;;;;;5003041;28;20421;-46
2024/02/17 12:42:58;;;;;;;4.30;3.87;;;11.20;99.90;;;;;;4983497;28;20531;-47
2024/02/17 12:45:30;;;;;;;4.57;3.80;;;11.20;99.90;;;;;;5001559;28;20443;-46
2024/02/17 12:48:01;;;;;;;6.03;4.30;;;11.20;99.90;;;;;;4997404;28;20802;-47
2024/02/17 12:50:30;;;;;;;6.70;3.50;;;11.20;99.90;;;;;;5000203;28;20444;-47
2024/02/17 12:53:14;;;;;;;6.33;3.80;;;11.20;99.90;;;;;;5002158;28;20440;-48
2024/02/17 12:55:43;;;;;;;7.00;4.20;;;11.20;99.90;;;;;;4986475;28;20427;-48
2024/02/17 12:58:12;;;;;;;4.83;4.30;;;11.20;99.90;;;;;;4998468;28;20526;-49
2024/02/17 13:00:43;;;;;;;4.10;3.60;;;11.20;99.90;;;;;;4999493;28;20502;-46
2024/02/17 13:03:13;;;;;;;4.70;4.00;;;11.20;99.90;;;;;;4997816;28;20469;-48